Time;durP1;ratioP1;P1;durP2;ratioP2;P2;SDS_P1;SDS_P2;PMS_P1;PMS_P2;Temp;Humidity;BMP_temperature;BMP_pressure;BME280_temperature;BME280_humidity;BME280_pressure;Samples;Min_cycle;Max_cycle;Signal;HPM_P1;HPM_P2
2022/10/18 00:00:19;;;;;;;13.95;9.43;;;;;;;18.94;66.42;102481.63;4967667;28;119502;-72
2022/10/18 00:02:46;;;;;;;13.70;9.02;;;;;;;18.93;66.25;102485.25;4967158;28;119249;-72
2022/10/18 00:05:14;;;;;;;11.90;9.00;;;;;;;18.91;66.41;102481.78;4967539;28;123897;-72
2022/10/18 00:07:41;;;;;;;12.40;9.52;;;;;;;18.90;66.38;102482.75;4969598;28;124120;-72
2022/10/18 00:10:09;;;;;;;10.30;9.05;;;;;;;18.90;66.32;102482.75;4951409;28;118102;-72
2022/10/18 00:12:37;;;;;;;11.13;8.85;;;;;;;18.86;66.30;102480.22;4969741;28;119659;-72
2022/10/18 00:15:06;;;;;;;11.48;9.32;;;;;;;18.86;66.34;102469.47;4967345;28;124673;-72
2022/10/18 00:17:35;;;;;;;11.30;8.27;;;;;;;18.85;66.18;102467.75;4964449;28;123481;-72
2022/10/18 00:20:03;;;;;;;13.10;9.00;;;;;;;18.85;66.22;102475.81;4966618;28;121345;-72
2022/10/18 00:22:33;;;;;;;10.70;8.90;;;;;;;18.84;66.23;102471.38;4967319;28;120482;-72
2022/10/18 00:25:00;;;;;;;11.25;8.55;;;;;;;18.84;66.12;102471.38;4967292;28;126539;-72
2022/10/18 00:27:29;;;;;;;10.10;8.00;;;;;;;18.84;66.24;102471.38;4967050;28;123762;-72
2022/10/18 00:29:57;;;;;;;11.05;8.52;;;;;;;18.82;66.24;102462.56;4932810;28;118980;-72
2022/10/18 00:32:24;;;;;;;11.57;7.85;;;;;;;18.83;66.31;102469.63;4967387;28;119289;-73
2022/10/18 00:34:51;;;;;;;12.45;8.75;;;;;;;18.82;66.20;102467.91;4967016;28;123198;-72
2022/10/18 00:37:18;;;;;;;12.02;8.73;;;;;;;18.82;66.16;102461.69;4948796;28;122842;-72
2022/10/18 00:39:45;;;;;;;13.48;8.55;;;;;;;18.80;66.04;102463.56;4966821;28;119174;-72
2022/10/18 00:42:18;;;;;;;12.02;8.65;;;;;;;18.80;66.30;102460.88;4947832;28;118660;-72
2022/10/18 00:44:45;;;;;;;13.52;8.30;;;;;;;18.79;66.41;102468.03;4963562;28;125363;-72
2022/10/18 00:47:15;;;;;;;12.55;7.90;;;;;;;18.80;66.48;102469.81;4966397;28;122772;-72
2022/10/18 00:49:49;;;;;;;10.80;8.20;;;;;;;18.79;66.27;102467.19;4949413;28;119178;-72
2022/10/18 00:52:39;;;;;;;13.80;8.73;;;;;;;18.78;66.37;102463.63;4960242;28;119184;-72
2022/10/18 00:55:07;;;;;;;12.02;8.23;;;;;;;18.78;66.37;102471.69;4960537;28;123653;-72
2022/10/18 00:57:36;;;;;;;11.63;8.00;;;;;;;18.78;66.29;102471.69;4945175;28;123494;-72
2022/10/18 01:00:08;;;;;;;9.90;7.75;;;;;;;18.77;66.29;102469.94;4964078;28;119523;-72
2022/10/18 01:02:36;;;;;;;12.80;8.80;;;;;;;18.79;66.27;102473.41;4944947;28;119499;-72
2022/10/18 01:05:04;;;;;;;13.07;8.73;;;;;;;18.79;66.28;102473.41;4948038;28;124550;-72
2022/10/18 01:07:48;;;;;;;12.02;8.35;;;;;;;18.80;66.26;102485.03;4966486;28;123758;-72
2022/10/18 01:10:25;;;;;;;10.55;8.07;;;;;;;18.78;66.27;102477.06;4946116;28;119562;-72
2022/10/18 01:13:07;;;;;;;11.23;8.00;;;;;;;18.78;66.30;102470.81;4962482;28;119434;-72
2022/10/18 01:15:47;;;;;;;11.55;8.20;;;;;;;18.78;66.18;102473.47;4964653;28;124456;-72
2022/10/18 01:18:26;;;;;;;9.68;7.60;;;;;;;18.77;66.30;102475.31;4959238;28;122959;-72
2022/10/18 01:20:56;;;;;;;9.63;8.27;;;;;;;18.78;66.16;102477.06;4963878;28;119110;-72
2022/10/18 01:23:35;;;;;;;11.95;7.95;;;;;;;18.78;66.45;102486.91;4949031;28;120307;-72
2022/10/18 01:26:31;;;;;;;12.18;7.88;;;;;;;18.76;66.38;102476.28;4955813;28;123827;-73
2022/10/18 01:29:13;;;;;;;13.02;8.10;;;;;;;18.76;66.21;102478.97;4963908;28;124077;-72
2022/10/18 01:31:51;;;;;;;9.63;7.63;;;;;;;18.75;66.28;102493.31;4964241;28;119388;-72
2022/10/18 01:34:26;;;;;;;12.35;8.55;;;;;;;18.74;66.25;102488.91;4948586;28;118973;-72
2022/10/18 01:36:55;;;;;;;15.00;8.93;;;;;;;18.73;66.18;102484.47;4947401;28;124779;-72
2022/10/18 01:39:28;;;;;;;10.30;8.40;;;;;;;18.73;66.30;102487.16;4947572;28;122994;-72
2022/10/18 01:41:58;;;;;;;14.15;9.45;;;;;;;18.73;66.14;102478.25;4928759;28;119395;-72
2022/10/18 01:44:31;;;;;;;14.73;8.52;;;;;;;18.71;66.21;102472.97;4966659;28;119412;-72
2022/10/18 01:46:58;;;;;;;11.35;8.25;;;;;;;18.71;66.31;102481.00;4962599;28;124028;-72
2022/10/18 01:49:26;;;;;;;13.73;8.68;;;;;;;18.71;66.28;102480.16;4966009;28;123729;-72
2022/10/18 01:51:53;;;;;;;10.93;8.60;;;;;;;18.71;66.14;102485.53;4947547;28;118582;-72
2022/10/18 01:54:32;;;;;;;10.93;8.10;;;;;;;18.69;66.23;102477.56;4965177;28;119122;-72
2022/10/18 01:57:24;;;;;;;9.88;8.07;;;;;;;18.69;66.30;102482.91;4959585;28;123483;-72
2022/10/18 02:00:11;;;;;;;10.07;7.85;;;;;;;18.68;66.06;102478.47;4948376;28;123874;-72
2022/10/18 02:02:49;;;;;;;12.02;7.80;;;;;;;18.67;66.13;102487.50;4963986;28;120054;-72
2022/10/18 02:05:37;;;;;;;10.13;7.85;;;;;;;18.67;66.16;102484.81;4962707;28;121063;-72
2022/10/18 02:08:14;;;;;;;10.30;8.23;;;;;;;18.65;66.14;102481.34;4962982;28;124252;-72
2022/10/18 02:10:55;;;;;;;12.13;7.95;;;;;;;18.65;66.22;102489.41;4965109;28;123974;-72
2022/10/18 02:13:26;;;;;;;10.20;7.85;;;;;;;18.64;66.16;102490.34;4963805;28;119576;-71
2022/10/18 02:15:59;;;;;;;11.82;8.30;;;;;;;18.64;66.14;102484.97;4948160;28;120930;-72
2022/10/18 02:18:36;;;;;;;11.50;8.23;;;;;;;18.63;66.20;102488.63;4962642;28;124478;-72
2022/10/18 02:21:07;;;;;;;13.10;8.75;;;;;;;18.62;66.05;102481.50;4940978;28;122646;-72
2022/10/18 02:23:35;;;;;;;11.43;8.75;;;;;;;18.62;66.22;102465.41;4942765;28;119838;-72
2022/10/18 02:26:02;;;;;;;10.27;8.10;;;;;;;18.62;66.23;102476.13;4965024;28;119606;-72
2022/10/18 02:28:30;;;;;;;10.65;8.05;;;;;;;18.61;66.16;102479.75;4965071;28;125100;-72
2022/10/18 02:31:19;;;;;;;10.25;7.85;;;;;;;18.60;66.23;102488.78;4963194;28;123920;-72
2022/10/18 02:33:55;;;;;;;12.40;8.68;;;;;;;18.58;66.23;102488.00;4932874;28;118483;-72
2022/10/18 02:36:52;;;;;;;15.93;9.32;;;;;;;18.57;66.10;102487.13;4961376;28;119142;-72
2022/10/18 02:39:29;;;;;;;21.40;9.10;;;;;;;18.57;66.23;102483.56;4963823;28;123873;-72
2022/10/18 02:41:57;;;;;;;14.00;9.02;;;;;;;18.57;66.16;102483.56;4947556;28;122943;-72
2022/10/18 02:44:24;;;;;;;13.57;9.13;;;;;;;18.57;66.33;102491.59;4969240;28;120093;-72
2022/10/18 02:46:52;;;;;;;12.98;9.60;;;;;;;18.58;66.27;102485.31;4969086;28;118796;-72
2022/10/18 02:49:19;;;;;;;12.27;8.88;;;;;;;18.58;66.16;102490.66;4968067;28;124753;-72
2022/10/18 02:51:46;;;;;;;11.05;8.18;;;;;;;18.58;66.32;102485.31;4966505;28;123670;-72
2022/10/18 02:54:13;;;;;;;13.95;8.98;;;;;;;18.57;66.26;102492.50;4966942;28;119914;-72
2022/10/18 02:56:40;;;;;;;10.68;9.57;;;;;;;18.57;66.42;102483.56;4968018;28;120045;-72
2022/10/18 02:59:07;;;;;;;13.75;10.15;;;;;;;18.57;66.40;102483.56;4967640;28;124628;-72
2022/10/18 03:01:35;;;;;;;12.55;9.93;;;;;;;18.58;66.38;102491.53;4968223;28;123797;-72
2022/10/18 03:04:03;;;;;;;11.10;8.75;;;;;;;18.57;66.41;102494.28;4967171;28;119094;-73
2022/10/18 03:06:31;;;;;;;12.77;9.35;;;;;;;18.58;66.27;102496.03;4951073;28;119699;-73
2022/10/18 03:08:58;;;;;;;13.43;8.63;;;;;;;18.58;66.38;102498.72;4968141;28;123622;-72
2022/10/18 03:11:25;;;;;;;11.38;9.63;;;;;;;18.59;66.38;102503.13;4968236;28;123727;-72
2022/10/18 03:13:52;;;;;;;11.40;9.40;;;;;;;18.58;66.25;102506.78;4949897;28;117348;-73
2022/10/18 03:16:19;;;;;;;12.35;9.80;;;;;;;18.58;66.38;102506.78;4968373;28;119295;-72
2022/10/18 03:18:46;;;;;;;10.63;9.52;;;;;;;18.58;66.59;102496.03;4967785;28;124530;-72
2022/10/18 03:21:13;;;;;;;12.93;9.48;;;;;;;18.57;66.61;102505.91;4967633;28;124085;-73
2022/10/18 03:23:41;;;;;;;11.25;9.63;;;;;;;18.58;66.60;102501.41;4949172;28;118725;-72
2022/10/18 03:26:08;;;;;;;15.55;10.48;;;;;;;18.58;66.66;102501.41;4949958;28;118284;-72
2022/10/18 03:28:35;;;;;;;15.15;10.25;;;;;;;18.59;66.39;102492.38;4948256;28;123343;-73
2022/10/18 03:31:04;;;;;;;13.32;10.38;;;;;;;18.57;66.54;102497.84;4968166;28;123738;-72
2022/10/18 03:33:31;;;;;;;12.13;10.32;;;;;;;18.58;66.68;102501.41;4947600;28;118524;-72
2022/10/18 03:35:59;;;;;;;15.57;10.55;;;;;;;18.57;66.61;102495.19;4968538;28;119117;-73
2022/10/18 03:38:26;;;;;;;14.25;10.85;;;;;;;18.57;66.61;102491.59;4950022;28;123108;-72
2022/10/18 03:40:53;;;;;;;13.30;10.88;;;;;;;18.58;66.63;102496.03;4967591;28;124340;-72
2022/10/18 03:43:20;;;;;;;13.02;10.48;;;;;;;18.58;66.68;102493.34;4950139;28;120194;-72
2022/10/18 03:45:47;;;;;;;15.30;10.65;;;;;;;18.59;66.71;102497.75;4967677;28;120398;-73
2022/10/18 03:48:15;;;;;;;15.20;10.75;;;;;;;18.59;66.48;102497.75;4933459;28;123150;-72
2022/10/18 03:50:42;;;;;;;14.48;11.35;;;;;;;18.60;66.54;102502.19;4964690;28;123752;-72
2022/10/18 03:53:09;;;;;;;12.38;11.05;;;;;;;18.60;66.56;102510.25;4964782;28;117913;-72
2022/10/18 03:55:37;;;;;;;15.38;12.05;;;;;;;18.60;66.47;102499.50;4966833;28;119141;-73
2022/10/18 03:58:04;;;;;;;15.48;11.55;;;;;;;18.60;66.54;102499.50;4950823;28;124119;-73
2022/10/18 04:00:32;;;;;;;15.43;11.20;;;;;;;18.60;66.51;102504.88;4968600;28;123702;-72
2022/10/18 04:02:59;;;;;;;15.25;11.98;;;;;;;18.59;66.46;102498.66;4967571;28;119120;-72
2022/10/18 04:05:29;;;;;;;19.17;13.45;;;;;;;18.58;66.52;102496.03;4964519;28;119288;-72
2022/10/18 04:07:57;;;;;;;14.38;12.13;;;;;;;18.59;66.50;102492.38;4948832;28;125000;-72
2022/10/18 04:10:24;;;;;;;14.48;11.70;;;;;;;18.57;66.34;102484.44;4967612;28;124368;-72
2022/10/18 04:12:51;;;;;;;18.75;12.68;;;;;;;18.57;66.43;102494.28;4963250;28;119306;-72
2022/10/18 04:15:18;;;;;;;19.88;13.57;;;;;;;18.54;66.40;102489.97;4966833;28;119875;-73
2022/10/18 04:17:46;;;;;;;19.27;13.35;;;;;;;18.55;66.44;102493.50;4947468;28;123363;-73
2022/10/18 04:20:13;;;;;;;15.93;12.63;;;;;;;18.53;66.40;102492.72;4948725;28;123281;-71
2022/10/18 04:22:40;;;;;;;16.88;12.25;;;;;;;18.53;66.44;102498.09;4966570;28;119148;-72
2022/10/18 04:25:07;;;;;;;17.45;12.68;;;;;;;18.53;66.36;102500.75;4948150;28;118724;-72
2022/10/18 04:27:35;;;;;;;19.60;12.55;;;;;;;18.52;66.33;102496.38;4965853;28;123957;-72
2022/10/18 04:30:02;;;;;;;19.55;12.45;;;;;;;18.48;66.33;102496.50;4966124;28;123718;-72
2022/10/18 04:32:29;;;;;;;26.98;14.52;;;;;;;18.48;66.43;102501.88;4947739;28;120484;-72
2022/10/18 04:34:56;;;;;;;23.92;14.15;;;;;;;18.47;66.38;102494.75;4947136;28;119288;-72
2022/10/18 04:37:23;;;;;;;28.70;14.50;;;;;;;18.47;66.48;102497.44;4947102;28;124394;-72
2022/10/18 04:39:50;;;;;;;33.58;15.82;;;;;;;18.48;66.24;102495.66;4966162;28;123517;-72
2022/10/18 04:42:20;;;;;;;29.02;15.13;;;;;;;18.48;66.29;102501.03;4948534;28;118471;-72
2022/10/18 04:44:47;;;;;;;24.55;15.48;;;;;;;18.46;66.52;102503.78;4948966;28;119147;-72
2022/10/18 04:47:16;;;;;;;42.28;17.92;;;;;;;18.47;66.38;102504.63;4965851;28;123848;-72
2022/10/18 04:49:43;;;;;;;40.35;17.85;;;;;;;18.46;66.58;102503.78;4947764;28;123783;-72
2022/10/18 04:52:10;;;;;;;37.70;18.55;;;;;;;18.47;66.58;102505.50;4966368;28;119407;-72
2022/10/18 04:54:37;;;;;;;65.57;18.30;;;;;;;18.48;66.75;102501.88;4965532;28;118547;-72
2022/10/18 04:57:04;;;;;;;37.80;20.10;;;;;;;18.49;66.48;102503.59;4964323;28;124907;-72
2022/10/18 04:59:31;;;;;;;35.55;20.42;;;;;;;18.49;66.52;102498.22;4966615;28;123819;-72
2022/10/18 05:01:58;;;;;;;28.55;19.02;;;;;;;18.49;66.61;102497.38;4966916;28;119479;-72
2022/10/18 05:04:25;;;;;;;33.92;19.23;;;;;;;18.49;66.59;102498.22;4967297;28;119823;-72
2022/10/18 05:06:52;;;;;;;69.45;20.08;;;;;;;18.51;66.65;102497.31;4961766;28;123941;-72
2022/10/18 05:09:23;;;;;;;32.88;20.63;;;;;;;18.51;66.73;102494.63;4965091;28;124416;-72
2022/10/18 05:11:50;;;;;;;36.13;20.20;;;;;;;18.53;66.78;102503.44;4963664;28;119110;-72
2022/10/18 05:14:17;;;;;;;38.40;20.02;;;;;;;18.53;66.76;102498.09;4945507;28;118381;-72
2022/10/18 05:16:44;;;;;;;50.53;19.63;;;;;;;18.53;66.73;102506.13;4966493;28;124233;-72
2022/10/18 05:19:11;;;;;;;32.33;19.30;;;;;;;18.55;66.79;102512.28;4947172;28;123927;-71
2022/10/18 05:21:38;;;;;;;57.70;20.13;;;;;;;18.55;66.66;102507.78;4966149;28;119570;-72
2022/10/18 05:24:05;;;;;;;37.92;20.15;;;;;;;18.56;66.59;102505.97;4964962;28;120670;-71
2022/10/18 05:26:32;;;;;;;38.03;19.17;;;;;;;18.56;66.62;102514.03;4965747;28;123411;-72
2022/10/18 05:28:59;;;;;;;37.05;19.10;;;;;;;18.56;66.79;102508.66;4965968;28;124295;-72
2022/10/18 05:31:27;;;;;;;44.83;20.00;;;;;;;18.55;66.78;102518.50;4966447;28;119252;-72
2022/10/18 05:33:54;;;;;;;42.33;21.67;;;;;;;18.55;66.69;102523.03;4966058;28;118780;-72
2022/10/18 05:36:21;;;;;;;59.85;21.17;;;;;;;18.54;66.66;102515.94;4966138;28;124563;-72
2022/10/18 05:38:49;;;;;;;84.55;22.08;;;;;;;18.53;66.81;102520.41;4964608;28;123761;-71
2022/10/18 05:41:16;;;;;;;41.05;20.80;;;;;;;18.52;66.90;102523.19;4966124;28;118913;-72
2022/10/18 05:43:42;;;;;;;55.38;20.92;;;;;;;18.49;66.81;102519.69;4948028;28;118900;-72
2022/10/18 05:46:11;;;;;;;52.58;20.45;;;;;;;18.49;66.92;102519.69;4965679;28;124651;-72
2022/10/18 05:48:43;;;;;;;68.93;20.50;;;;;;;18.48;66.89;102528.72;4963353;28;124355;-72
2022/10/18 05:51:10;;;;;;;61.70;20.08;;;;;;;18.46;66.94;102525.25;4965898;28;119206;-73
2022/10/18 05:53:37;;;;;;;75.97;20.63;;;;;;;18.43;66.95;102529.91;4963473;28;119134;-73
2022/10/18 05:56:06;;;;;;;55.58;20.35;;;;;;;18.42;67.00;102534.41;4947620;28;122766;-73
2022/10/18 05:58:33;;;;;;;64.38;20.75;;;;;;;18.41;67.19;102542.53;4962686;28;124598;-72
2022/10/18 06:01:02;;;;;;;45.10;21.27;;;;;;;18.40;67.07;102547.03;4965704;28;119645;-73
2022/10/18 06:03:29;;;;;;;42.70;20.15;;;;;;;18.41;66.96;102554.13;4963006;28;118798;-73
2022/10/18 06:06:05;;;;;;;60.25;19.83;;;;;;;18.40;67.16;102560.44;4963629;28;124057;-73
2022/10/18 06:08:33;;;;;;;48.13;20.33;;;;;;;18.40;67.29;102557.75;4946680;28;123032;-73
2022/10/18 06:11:08;;;;;;;50.75;19.25;;;;;;;18.38;66.98;102554.25;4964057;28;119884;-73
2022/10/18 06:13:46;;;;;;;36.92;19.38;;;;;;;18.37;66.96;102552.53;4946216;28;119804;-73
2022/10/18 06:16:15;;;;;;;52.38;19.63;;;;;;;18.35;66.97;102554.44;4944728;28;123229;-73
2022/10/18 06:18:49;;;;;;;49.63;20.70;;;;;;;18.33;67.23;102550.97;4967097;28;123617;-73
2022/10/18 06:21:17;;;;;;;44.97;20.25;;;;;;;18.33;67.29;102550.97;4949674;28;118974;-73
2022/10/18 06:23:51;;;;;;;51.60;20.35;;;;;;;18.34;67.10;102557.19;4968226;28;119437;-73
2022/10/18 06:26:19;;;;;;;31.90;20.38;;;;;;;18.33;67.02;102556.31;4963160;28;124803;-73
2022/10/18 06:28:46;;;;;;;45.28;21.45;;;;;;;18.35;67.17;102557.13;4969311;28;123872;-73
2022/10/18 06:31:13;;;;;;;38.08;20.92;;;;;;;18.36;67.31;102550.78;4950957;28;119237;-73
2022/10/18 06:33:40;;;;;;;53.95;21.17;;;;;;;18.37;67.13;102557.91;4951597;28;118096;-71
2022/10/18 06:36:14;;;;;;;32.17;19.92;;;;;;;18.38;67.19;102565.00;4968029;28;124877;-71
2022/10/18 06:38:41;;;;;;;51.65;20.70;;;;;;;18.38;67.11;102565.00;4948420;28;124020;-73
2022/10/18 06:41:08;;;;;;;50.17;21.88;;;;;;;18.38;67.20;102569.50;4969004;28;118803;-73
2022/10/18 06:43:35;;;;;;;48.42;21.27;;;;;;;18.35;67.15;102581.25;4950602;28;118054;-73
2022/10/18 06:46:06;;;;;;;40.58;21.48;;;;;;;18.35;67.28;102580.41;4978788;28;124121;-71
2022/10/18 06:48:35;;;;;;;49.05;20.70;;;;;;;18.32;67.32;102592.13;4968942;28;124225;-71
2022/10/18 06:51:04;;;;;;;37.03;21.45;;;;;;;18.33;67.44;102583.16;4968537;28;119406;-71
2022/10/18 06:53:33;;;;;;;54.45;21.02;;;;;;;18.33;67.26;102590.31;4966460;28;119308;-71
2022/10/18 06:56:14;;;;;;;66.65;20.42;;;;;;;18.32;67.45;102597.50;4965000;28;124391;-72
2022/10/18 06:58:41;;;;;;;62.30;20.83;;;;;;;18.31;67.38;102600.25;4949895;28;123458;-72
2022/10/18 07:01:11;;;;;;;57.22;20.73;;;;;;;18.30;67.41;102599.38;4966834;28;119974;-72
2022/10/18 07:03:38;;;;;;;72.13;20.85;;;;;;;18.28;67.49;102614.69;4965935;28;119973;-71
2022/10/18 07:06:07;;;;;;;80.80;20.77;;;;;;;18.25;67.38;102606.78;4966633;28;124367;-72
2022/10/18 07:08:35;;;;;;;68.78;19.27;;;;;;;18.24;67.42;102610.44;4968918;28;124187;-71
2022/10/18 07:11:03;;;;;;;59.35;18.75;;;;;;;18.21;67.57;102618.63;4951953;28;118375;-71
2022/10/18 07:13:32;;;;;;;80.97;18.83;;;;;;;18.19;67.58;102623.19;4950408;28;118218;-71
2022/10/18 07:16:04;;;;;;;70.90;18.58;;;;;;;18.18;67.58;102626.84;4965600;28;124581;-71
2022/10/18 07:18:46;;;;;;;46.30;17.88;;;;;;;18.16;67.56;102628.69;4950658;28;123835;-71
2022/10/18 07:21:15;;;;;;;87.38;18.63;;;;;;;18.15;67.43;102632.34;4950255;28;118759;-71
2022/10/18 07:23:45;;;;;;;99.82;19.48;;;;;;;18.15;67.89;102635.00;4966878;28;118873;-72
2022/10/18 07:26:21;;;;;;;106.00;19.73;;;;;;;18.15;67.83;102637.69;4948072;28;122970;-71
2022/10/18 07:28:53;;;;;;;79.68;20.17;;;;;;;18.17;67.67;102641.16;4948549;28;122874;-71
2022/10/18 07:31:21;;;;;;;73.40;19.88;;;;;;;18.16;67.73;102644.78;4966208;28;120077;-71
2022/10/18 07:33:48;;;;;;;60.08;20.92;;;;;;;18.16;67.74;102647.47;4968650;28;118874;-71
2022/10/18 07:36:16;;;;;;;52.05;20.88;;;;;;;18.17;67.79;102646.53;4971858;28;124044;-72
2022/10/18 07:38:43;;;;;;;48.45;21.23;;;;;;;18.18;67.81;102664.38;4972511;28;124531;-71
2022/10/18 07:41:12;;;;;;;52.78;21.05;;;;;;;18.19;67.66;102666.97;4952054;28;119436;-71
2022/10/18 07:43:45;;;;;;;61.28;21.15;;;;;;;18.20;67.66;102665.16;4967597;28;118993;-71
2022/10/18 07:46:13;;;;;;;45.13;19.33;;;;;;;18.18;67.96;102667.91;4967572;28;123537;-71
2022/10/18 07:48:40;;;;;;;61.40;21.15;;;;;;;18.18;67.94;102669.75;4966374;28;124582;-71
2022/10/18 07:51:08;;;;;;;44.47;19.50;;;;;;;18.19;67.86;102676.81;4967846;28;120341;-71
2022/10/18 07:53:36;;;;;;;53.00;21.30;;;;;;;18.18;67.87;102684.00;4967630;28;119785;-71
2022/10/18 07:56:10;;;;;;;40.00;20.17;;;;;;;18.17;67.94;102684.94;4967503;28;124082;-71
2022/10/18 07:58:37;;;;;;;40.45;19.77;;;;;;;18.19;68.01;102687.56;4965080;28;124709;-71
2022/10/18 08:01:06;;;;;;;39.70;20.15;;;;;;;18.19;68.12;102683.06;4949982;28;118388;-71
2022/10/18 08:03:34;;;;;;;39.00;19.92;;;;;;;18.23;67.96;102689.13;4949504;28;119155;-71
2022/10/18 08:06:02;;;;;;;45.03;21.55;;;;;;;18.24;68.02;102697.13;4965310;28;124500;-71
2022/10/18 08:08:29;;;;;;;39.10;20.05;;;;;;;18.26;67.91;102705.09;4967606;28;124346;-71
2022/10/18 08:11:13;;;;;;;37.67;19.23;;;;;;;18.28;68.07;102705.88;4967315;28;119260;-71
2022/10/18 08:13:41;;;;;;;40.72;20.92;;;;;;;18.32;67.67;102714.66;4963662;28;118924;-71
2022/10/18 08:16:11;;;;;;;44.42;23.48;;;;;;;18.31;67.63;102721.84;4966878;28;123356;-71
2022/10/18 08:18:38;;;;;;;45.17;23.35;;;;;;;18.30;67.57;102717.41;4967399;28;124286;-71
2022/10/18 08:21:09;;;;;;;44.45;23.88;;;;;;;18.28;67.43;102713.94;4948036;28;118637;-71
2022/10/18 08:23:37;;;;;;;47.58;24.10;;;;;;;18.28;67.80;102713.94;4961906;28;118836;-71
2022/10/18 08:26:23;;;;;;;48.63;24.58;;;;;;;18.31;67.76;102719.16;4945170;28;124545;-73
2022/10/18 08:28:50;;;;;;;46.95;25.52;;;;;;;18.33;67.74;102722.66;4964535;28;123663;-73
2022/10/18 08:31:37;;;;;;;50.45;26.40;;;;;;;18.33;67.53;102717.28;4964462;28;119143;-75
2022/10/18 08:34:04;;;;;;;48.55;25.42;;;;;;;18.33;67.63;102722.66;4967284;28;119418;-72
2022/10/18 08:36:31;;;;;;;46.40;25.90;;;;;;;18.36;67.45;102729.66;4966768;28;123920;-72
2022/10/18 08:38:58;;;;;;;49.75;24.88;;;;;;;18.37;67.50;102740.31;4948764;28;123994;-72
2022/10/18 08:41:40;;;;;;;49.03;25.10;;;;;;;18.36;67.22;102727.84;4932410;28;119807;-72
2022/10/18 08:44:29;;;;;;;44.72;24.55;;;;;;;18.36;67.47;102733.22;4961620;28;119544;-73
2022/10/18 08:47:05;;;;;;;48.55;24.75;;;;;;;18.37;67.57;102732.28;4963063;28;123848;-72
2022/10/18 08:49:45;;;;;;;46.05;24.52;;;;;;;18.38;67.60;102731.31;4963997;28;124837;-72
2022/10/18 08:52:34;;;;;;;47.05;24.15;;;;;;;18.43;67.54;102739.16;4948604;28;119156;-72
2022/10/18 08:55:10;;;;;;;43.78;23.58;;;;;;;18.45;67.27;102731.91;4964298;28;119175;-72
2022/10/18 08:57:37;;;;;;;41.58;23.60;;;;;;;18.49;67.37;102734.34;4942723;28;123301;-72
2022/10/18 09:00:16;;;;;;;42.60;23.15;;;;;;;18.52;67.35;102732.50;4965579;28;123732;-72
2022/10/18 09:03:05;;;;;;;36.20;21.92;;;;;;;18.54;67.13;102735.97;4964744;28;119339;-72
2022/10/18 09:06:00;;;;;;;42.63;22.35;;;;;;;18.56;67.20;102734.09;4948401;28;97171;-71
2022/10/18 09:09:02;;;;;;;35.10;20.60;;;;;;;18.58;67.04;102733.06;4963607;28;124071;-71
2022/10/18 09:11:45;;;;;;;39.22;20.90;;;;;;;18.62;67.07;102736.47;4966191;28;123604;-71
2022/10/18 09:14:39;;;;;;;36.05;21.15;;;;;;;18.67;67.08;102745.16;4965964;28;118863;-71
2022/10/18 09:17:22;;;;;;;40.83;21.40;;;;;;;18.74;66.86;102745.72;4963860;28;118957;-71
2022/10/18 09:20:01;;;;;;;31.92;18.67;;;;;;;18.79;66.84;102739.19;4966082;28;124480;-71
2022/10/18 09:22:51;;;;;;;32.97;18.95;;;;;;;18.84;66.69;102739.84;4942738;28;124295;-71
2022/10/18 09:25:21;;;;;;;30.17;18.73;;;;;;;18.88;66.61;102745.09;4964722;28;119684;-71
2022/10/18 09:27:54;;;;;;;32.40;18.50;;;;;;;18.92;66.32;102752.03;4946987;28;118557;-71
2022/10/18 09:30:37;;;;;;;29.85;18.25;;;;;;;18.96;66.03;102748.25;4961611;28;124014;-71
2022/10/18 09:33:29;;;;;;;27.38;17.48;;;;;;;19.00;66.11;102744.47;4957999;28;123609;-72
2022/10/18 09:36:00;;;;;;;28.35;18.63;;;;;;;19.04;66.03;102746.94;4959110;28;120788;-72
2022/10/18 09:38:31;;;;;;;30.67;17.42;;;;;;;19.11;65.81;102742.09;4945697;28;120124;-72
2022/10/18 09:41:09;;;;;;;31.13;18.25;;;;;;;19.18;65.61;102742.66;4947987;28;124080;-72
2022/10/18 09:43:44;;;;;;;31.08;17.13;;;;;;;19.22;65.60;102739.72;4947845;28;123320;-72
2022/10/18 09:46:12;;;;;;;31.42;17.85;;;;;;;19.31;65.70;102742.88;4944204;28;119736;-72
2022/10/18 09:48:48;;;;;;;27.67;16.83;;;;;;;19.38;65.60;102738.94;4963772;28;118965;-73
2022/10/18 09:51:21;;;;;;;29.95;16.85;;;;;;;19.46;65.45;102742.09;4964149;28;123744;-70
2022/10/18 09:54:13;;;;;;;28.80;16.63;;;;;;;19.52;64.94;102738.22;4962724;28;124429;-72
2022/10/18 09:56:56;;;;;;;30.67;16.45;;;;;;;19.55;64.68;102741.63;4960123;28;119114;-72
2022/10/18 09:59:48;;;;;;;29.17;16.52;;;;;;;19.59;64.70;102748.56;4964871;28;119205;-71
2022/10/18 10:02:21;;;;;;;21.90;14.02;;;;;;;19.64;64.21;102746.50;4962344;28;123021;-72
2022/10/18 10:04:50;;;;;;;24.38;13.40;;;;;;;19.68;63.66;102740.97;4963667;28;123783;-72
2022/10/18 10:07:25;;;;;;;21.70;12.38;;;;;;;19.71;63.09;102741.66;4963915;28;118988;-72
2022/10/18 10:10:04;;;;;;;25.35;13.80;;;;;;;19.76;62.89;102745.03;4964141;28;119584;-72
2022/10/18 10:12:34;;;;;;;26.00;13.48;;;;;;;19.81;63.08;102748.31;4962125;28;124425;-72
2022/10/18 10:15:18;;;;;;;23.73;13.10;;;;;;;19.86;62.61;102740.00;4965171;28;124008;-72
2022/10/18 10:18:30;;;;;;;30.65;13.98;;;;;;;19.92;62.50;102744.19;4946774;28;118346;-72
2022/10/18 10:20:59;;;;;;;17.55;9.70;;;;;;;19.98;62.25;102739.31;4949771;28;118888;-73
2022/10/18 10:23:31;;;;;;;21.75;9.32;;;;;;;20.01;61.90;102733.78;4944891;28;124770;-71
2022/10/18 10:26:02;;;;;;;23.77;11.60;;;;;;;20.08;61.70;102744.22;4945174;28;123853;-71
2022/10/18 10:28:47;;;;;;;17.90;8.50;;;;;;;20.13;61.52;102752.91;4946015;28;119595;-71
2022/10/18 10:31:23;;;;;;;17.97;9.83;;;;;;;20.19;61.55;102752.56;4963905;28;119866;-71
2022/10/18 10:34:17;;;;;;;17.13;9.07;;;;;;;20.25;61.32;102752.25;4947232;28;123341;-71
2022/10/18 10:36:47;;;;;;;18.05;8.50;;;;;;;20.31;60.97;102762.66;4962332;28;124119;-72
2022/10/18 10:39:19;;;;;;;17.08;8.00;;;;;;;20.36;60.98;102760.56;4946571;28;119079;-72
2022/10/18 10:41:59;;;;;;;14.70;7.68;;;;;;;20.41;60.66;102763.84;4960474;28;119292;-71
2022/10/18 10:44:33;;;;;;;15.70;6.57;;;;;;;20.47;59.61;102764.47;4960690;28;124440;-71
2022/10/18 10:47:00;;;;;;;12.55;5.93;;;;;;;20.51;59.33;102768.72;4943853;28;123638;-71
2022/10/18 10:49:36;;;;;;;14.00;4.93;;;;;;;20.53;59.11;102761.44;4964875;28;119638;-71
2022/10/18 10:52:16;;;;;;;9.32;3.00;;;;;;;20.58;58.69;102764.75;4963715;28;119429;-72
2022/10/18 10:55:04;;;;;;;8.80;2.50;;;;;;;20.61;57.79;102781.63;4961155;28;124512;-72
2022/10/18 10:57:52;;;;;;;6.85;2.35;;;;;;;20.65;57.49;102776.94;4962342;28;124449;-73
2022/10/18 11:00:41;;;;;;;9.15;2.50;;;;;;;20.66;56.90;102775.97;4928819;28;118924;-72
2022/10/18 11:03:17;;;;;;;6.32;2.40;;;;;;;20.68;56.46;102776.78;4965711;28;119052;-71
2022/10/18 11:06:00;;;;;;;7.35;2.38;;;;;;;20.70;55.97;102782.94;4949100;28;123484;-71
2022/10/18 11:08:37;;;;;;;5.93;2.25;;;;;;;20.73;55.32;102780.03;4965505;28;124753;-71
2022/10/18 11:11:20;;;;;;;11.40;3.40;;;;;;;20.80;56.16;102775.19;4948987;28;118385;-71
2022/10/18 11:13:56;;;;;;;10.10;4.10;;;;;;;20.85;55.76;102777.59;4958918;28;117878;-72
2022/10/18 11:16:53;;;;;;;8.27;2.60;;;;;;;20.89;54.99;102780.06;4948541;28;124518;-72
2022/10/18 11:19:50;;;;;;;7.00;2.92;;;;;;;20.94;55.05;102771.69;4964034;28;125350;-72
2022/10/18 11:22:22;;;;;;;8.95;3.78;;;;;;;20.99;55.08;102775.00;4946567;28;119961;-71
2022/10/18 11:24:49;;;;;;;9.13;3.10;;;;;;;21.03;55.14;102771.16;4965748;28;120159;-71
2022/10/18 11:28:02;;;;;;;6.93;2.42;;;;;;;21.10;54.63;102783.31;4933025;28;123120;-71